Bend, OR

2:33 PM PDT on October 20, 2014 (GMT -0700)
Lava Ridges | Change Station
CLOSE
Current Station
Personal Weather Station
Location: Bend, OR
Elevation: 3465 ft
Nearby Weather Stations

Elev 3465 ft 44.09 °N, 121.28 °W | Updated 8 seconds ago

Rain
Rain
48.9 °F
Feels Like 49 °F
N
2.0
Wind Variable Wind from SW
Gusts 2.0 mph

Today
High -- | Low -- °F
--% Chance of Precip.
Yesterday
High -- | Low -- °F
Precip. -- in
7:26 AM 6:12 PM
Waning Crescent, 9% visible
Pressure 29.85 in
Visibility 3.0 miles
Clouds Few 2000 ft
Scattered Clouds 3100 ft
Mostly Cloudy 4300 ft
Windchill 49 °F
Dew Point 45 °F
Humidity 86%
Rainfall 0.07 in
Snow Depth 0 in
UV 2 out of 12
Pollen .30 out of 12
Air Quality Not available.
Flu Activity Sporadic
METAR KBDN 202115Z AUTO 34005KT 3SM RA FEW020 SCT031 BKN043 10/06 A2985 RMK AO2 P0001

More Conditions Fewer Conditions

Pressure 29.85 in
Visibility 3.0 miles
Clouds Few 2000 ft
Scattered Clouds 3100 ft
Mostly Cloudy 4300 ft
Windchill 49 °F
Dew Point 45 °F
Humidity 86%
Rainfall 0.07 in
Snow Depth 0 in
UV 2 out of 12
Pollen .30 out of 12
Air Quality Not available.
Flu Activity Sporadic
METAR KBDN 202115Z AUTO 34005KT 3SM RA FEW020 SCT031 BKN043 10/06 A2985 RMK AO2 P0001

More Conditions Fewer Conditions

10-Day Weather Forecast

Almanac

Astronomy

Oct. 20, 2014 Rise Set
Actual Time 7:26 AM PDT 6:12 PM PDT
Civil Twilight 6:56 AM PDT 6:42 PM PDT
Nautical Twilight 6:23 AM PDT 7:15 PM PDT
Astronomical Twilight 5:49 AM PDT 7:49 PM PDT
Moon 4:13 AM PDT 4:43 PM PDT
Length of Visible Light 11h 45m
Length of Day
10h 46m
Waning Crescent, 9% of the Moon is Illuminated
Today
Waning Crescent
Oct 23
New
Oct 30
First Quarter
Nov 6
Full
Nov 14
Last Quarter

Today's Extremes

State Highs State Lows

Community

WunderPhotos

Upload Photos

1,763,525 photos uploaded!

WunderBlogs® & News

Nearby

Snow Depth

Station Depth Elevation
Three Creeks Meadow 0 in 5650 ft
Hogg Pass 1 in 4760 ft
Irish Taylor 0 in 5500 ft
Roaring River 0 in 4900 ft
Marion Forks 0 in 2600 ft

Earthquake Activity

City Distance Mag. Time & Date
No recent earthquake activity has been reported nearby.
Minimum magnitude displayed is 2.5.

Coastal Water Temperatures

Place Temperature
No Stations Reporting

Nearby Weather Stations